Time;durP1;ratioP1;P1;durP2;ratioP2;P2;SDS_P1;SDS_P2;PMS_P1;PMS_P2;Temp;Humidity;BMP_temperature;BMP_pressure;BME280_temperature;BME280_humidity;BME280_pressure;Samples;Min_cycle;Max_cycle;Signal;HPM_P1;HPM_P2
2020/12/03 00:00:56;;;;;;;24.77;13.88;;;;;;;3.60;74.30;101459.56;1782524;80;21107;-64
2020/12/03 00:03:38;;;;;;;29.35;15.08;;;;;;;3.65;74.22;101463.20;1784257;80;21540;-65
2020/12/03 00:06:19;;;;;;;28.80;14.65;;;;;;;3.57;74.42;101463.83;1768778;80;21519;-64
2020/12/03 00:08:57;;;;;;;25.43;13.70;;;;;;;3.55;74.53;101469.80;1767981;80;21138;-64
2020/12/03 00:11:30;;;;;;;29.90;15.32;;;;;;;3.55;74.59;101465.49;1793902;79;22157;-64
2020/12/03 00:14:01;;;;;;;26.12;15.00;;;;;;;3.60;74.45;101465.63;1794384;79;21100;-64
2020/12/03 00:16:30;;;;;;;26.30;13.40;;;;;;;3.60;74.43;101468.67;1797606;79;21635;-64
2020/12/03 00:18:58;;;;;;;24.65;13.05;;;;;;;3.60;74.36;101471.27;1797199;79;21150;-64
2020/12/03 00:21:50;;;;;;;25.80;14.45;;;;;;;3.61;74.34;101470.44;1777884;79;21632;-64
2020/12/03 00:24:22;;;;;;;29.32;14.43;;;;;;;3.59;74.38;101469.50;1785130;79;22033;-63
2020/12/03 00:26:51;;;;;;;28.17;13.43;;;;;;;3.59;74.25;101466.47;1797431;79;21184;-64
2020/12/03 00:29:19;;;;;;;27.55;14.75;;;;;;;3.60;74.22;101471.27;1801887;79;21153;-64
2020/12/03 00:31:47;;;;;;;29.02;15.43;;;;;;;3.61;74.25;101475.22;1799282;78;21578;-64
2020/12/03 00:34:15;;;;;;;25.60;15.35;;;;;;;3.72;73.94;101479.52;1787204;79;21551;-64
2020/12/03 00:36:42;;;;;;;25.68;13.90;;;;;;;3.64;74.19;101475.33;1801838;78;21401;-64
2020/12/03 00:39:13;;;;;;;27.85;15.23;;;;;;;3.66;74.14;101472.79;1801830;79;21870;-64
2020/12/03 00:41:42;;;;;;;27.87;13.68;;;;;;;3.65;74.10;101471.89;1796091;79;21092;-64
2020/12/03 00:44:10;;;;;;;28.42;13.28;;;;;;;3.64;74.06;101462.30;1778248;79;21587;-64
2020/12/03 00:46:37;;;;;;;23.85;13.32;;;;;;;3.66;74.07;101472.79;1799443;79;21135;-64
2020/12/03 00:49:05;;;;;;;27.00;14.15;;;;;;;3.64;74.02;101471.42;1796494;79;21371;-64
2020/12/03 00:51:33;;;;;;;30.23;15.48;;;;;;;3.65;74.04;101480.13;1792842;79;21123;-64
2020/12/03 00:54:01;;;;;;;25.60;13.93;;;;;;;3.65;74.15;101473.19;1787850;79;21136;-56
2020/12/03 00:56:29;;;;;;;24.98;13.18;;;;;;;3.68;74.03;101466.78;1797390;79;21643;-56
2020/12/03 00:58:57;;;;;;;29.52;14.95;;;;;;;3.69;73.96;101465.08;1799832;79;21168;-64
2020/12/03 01:01:25;;;;;;;25.90;14.28;;;;;;;3.68;74.02;101461.58;1779349;79;23524;-65
2020/12/03 01:03:52;;;;;;;26.00;13.53;;;;;;;3.76;73.77;101462.25;1798207;79;21987;-56
2020/12/03 01:06:21;;;;;;;25.37;13.75;;;;;;;3.73;73.81;101460.45;1797511;79;21084;-56
2020/12/03 01:08:49;;;;;;;25.95;15.08;;;;;;;3.72;73.74;101455.64;1779095;79;21460;-65
2020/12/03 01:11:21;;;;;;;24.90;13.30;;;;;;;3.68;73.89;101450.30;1784458;79;21684;-65
2020/12/03 01:13:49;;;;;;;24.47;14.60;;;;;;;3.66;73.95;101451.95;1784438;80;21368;-64
2020/12/03 01:16:18;;;;;;;27.52;14.87;;;;;;;3.67;73.90;101449.83;1784439;80;21916;-64
2020/12/03 01:18:47;;;;;;;28.05;14.40;;;;;;;3.71;73.80;101455.17;1771006;80;21153;-65
2020/12/03 01:21:19;;;;;;;24.07;14.05;;;;;;;3.73;73.75;101455.24;1782186;80;21205;-64
2020/12/03 01:23:47;;;;;;;27.00;14.70;;;;;;;3.75;73.54;101452.27;1784499;80;21628;-65
2020/12/03 01:26:17;;;;;;;27.90;15.18;;;;;;;3.76;73.52;101450.53;1783216;80;22265;-64
2020/12/03 01:28:45;;;;;;;30.20;15.48;;;;;;;3.69;73.67;101451.63;1784150;80;21493;-65
2020/12/03 01:31:12;;;;;;;24.67;14.00;;;;;;;3.68;73.79;101451.59;1783533;80;21583;-65
2020/12/03 01:33:40;;;;;;;27.77;13.85;;;;;;;3.71;73.68;101449.09;1783788;80;21879;-64
2020/12/03 01:36:08;;;;;;;23.22;13.48;;;;;;;3.71;73.55;101447.80;1778508;80;21615;-65
2020/12/03 01:38:35;;;;;;;26.27;13.35;;;;;;;3.66;73.75;101444.14;1773477;80;22105;-65
2020/12/03 01:41:03;;;;;;;25.30;12.63;;;;;;;3.65;73.71;101441.08;1783758;80;21154;-56
2020/12/03 01:43:31;;;;;;;27.42;14.28;;;;;;;3.64;73.74;101444.08;1783790;80;21501;-56
2020/12/03 01:46:00;;;;;;;27.25;14.03;;;;;;;3.61;73.79;101437.90;1772239;80;21120;-56
2020/12/03 01:48:36;;;;;;;22.70;13.03;;;;;;;3.63;73.79;101444.05;1782225;80;21161;-56
2020/12/03 01:51:29;;;;;;;25.57;12.58;;;;;;;3.63;73.83;101439.70;1783954;80;21139;-56
2020/12/03 01:54:00;;;;;;;23.77;12.43;;;;;;;3.63;73.84;101443.61;1757321;80;21649;-56
2020/12/03 01:56:46;;;;;;;;;;;;;;;3.62;73.95;101438.37;1785276;80;21163;-56
2020/12/03 01:59:13;;;;;;;26.85;13.45;;;;;;;3.68;73.78;101439.45;1781056;80;20267;-56
2020/12/03 02:01:42;;;;;;;25.48;14.45;;;;;;;3.69;73.74;101444.25;1754879;80;21070;-57
2020/12/03 02:04:10;;;;;;;28.32;13.65;;;;;;;3.70;73.73;101451.23;1753073;80;21397;-56
2020/12/03 02:06:39;;;;;;;23.77;13.15;;;;;;;3.74;73.66;101450.90;1750162;80;21994;-56
2020/12/03 02:09:09;;;;;;;20.13;12.43;;;;;;;3.76;73.62;101451.84;1784681;80;21745;-56
2020/12/03 02:11:36;;;;;;;26.80;12.80;;;;;;;3.81;73.47;101451.58;1784514;79;21561;-57
2020/12/03 02:14:09;;;;;;;22.40;12.18;;;;;;;3.78;73.45;101452.77;1792417;79;21093;-56
2020/12/03 02:16:41;;;;;;;21.40;12.88;;;;;;;3.79;73.42;101446.73;1791946;79;21190;-57
2020/12/03 02:19:27;;;;;;;23.22;11.90;;;;;;;3.75;73.52;101441.86;1785029;79;22514;-56
2020/12/03 02:22:02;;;;;;;23.27;12.05;;;;;;;3.74;73.47;101440.08;1796170;79;21672;-56
2020/12/03 02:24:33;;;;;;;25.77;12.18;;;;;;;3.75;73.54;101439.25;1798884;79;21145;-56
2020/12/03 02:27:00;;;;;;;23.90;13.18;;;;;;;3.75;73.48;101437.05;1796154;79;22154;-56
2020/12/03 02:29:28;;;;;;;21.82;13.48;;;;;;;3.74;73.63;101439.19;1795026;79;21374;-56
2020/12/03 02:31:56;;;;;;;21.57;13.05;;;;;;;3.75;73.52;101441.86;1788061;79;21520;-57
2020/12/03 02:34:24;;;;;;;19.25;11.53;;;;;;;3.72;73.57;101436.11;1796728;79;21521;-56
2020/12/03 02:36:57;;;;;;;22.17;12.25;;;;;;;3.81;73.37;101432.91;1797378;79;21079;-56
2020/12/03 02:39:28;;;;;;;21.57;12.40;;;;;;;3.83;73.23;101430.37;1788847;79;21093;-57
2020/12/03 02:41:58;;;;;;;23.25;12.50;;;;;;;3.82;73.38;101431.20;1793063;79;21203;-64
2020/12/03 02:44:26;;;;;;;21.00;12.85;;;;;;;3.84;73.30;101433.45;1782147;79;22081;-65
2020/12/03 02:46:54;;;;;;;24.00;12.03;;;;;;;3.83;73.24;101432.98;1798905;79;21088;-64
2020/12/03 02:49:21;;;;;;;21.33;12.68;;;;;;;3.82;73.23;101430.77;1795870;79;21623;-64
2020/12/03 02:51:51;;;;;;;19.82;10.85;;;;;;;3.81;73.26;101433.34;1758700;80;21065;-64
2020/12/03 02:54:19;;;;;;;20.55;11.73;;;;;;;3.74;73.45;101426.16;1757639;80;22000;-56
2020/12/03 02:56:47;;;;;;;19.57;11.15;;;;;;;3.66;73.76;101422.88;1769215;80;21165;-64
2020/12/03 02:59:14;;;;;;;19.90;11.53;;;;;;;3.67;73.80;101424.66;1766669;80;21501;-64
2020/12/03 03:01:42;;;;;;;18.45;11.35;;;;;;;3.70;73.68;101427.80;1779967;80;21755;-57
2020/12/03 03:04:09;;;;;;;18.27;10.25;;;;;;;3.72;73.64;101424.83;1779979;80;21609;-57
2020/12/03 03:06:37;;;;;;;20.48;11.10;;;;;;;3.75;73.50;101422.33;1779682;80;21298;-66
2020/12/03 03:09:05;;;;;;;21.35;11.40;;;;;;;3.66;73.70;101425.48;1761494;80;21881;-56
2020/12/03 03:11:34;;;;;;;21.77;11.57;;;;;;;3.68;73.76;101412.10;1779873;80;21080;-57
2020/12/03 03:14:04;;;;;;;18.60;11.15;;;;;;;3.69;73.71;101413.88;1778590;80;21766;-57
2020/12/03 03:16:31;;;;;;;19.30;10.95;;;;;;;3.71;73.64;101416.11;1773485;80;21079;-57
2020/12/03 03:19:00;;;;;;;22.05;11.70;;;;;;;3.71;73.64;101422.63;1778881;80;22179;-56
2020/12/03 03:21:27;;;;;;;18.70;11.10;;;;;;;3.64;73.83;101422.38;1776014;80;21179;-65
2020/12/03 03:23:55;;;;;;;21.07;11.75;;;;;;;3.71;73.67;101424.36;1774189;80;21142;-65
2020/12/03 03:26:23;;;;;;;23.02;11.10;;;;;;;3.70;73.74;101419.55;1766607;80;21117;-65
2020/12/03 03:28:51;;;;;;;19.82;11.57;;;;;;;3.71;73.74;101429.13;1782386;80;21481;-65
2020/12/03 03:31:18;;;;;;;19.00;11.20;;;;;;;3.71;73.80;101418.72;1784458;80;22067;-57
2020/12/03 03:33:47;;;;;;;20.52;11.38;;;;;;;3.71;73.77;101429.13;1781382;80;21199;-57
2020/12/03 03:36:15;;;;;;;21.90;11.22;;;;;;;3.75;73.58;101426.23;1780143;80;21653;-58
2020/12/03 03:38:42;;;;;;;18.00;11.15;;;;;;;3.78;73.48;101424.13;1784393;80;21567;-65
2020/12/03 03:41:10;;;;;;;19.65;10.72;;;;;;;3.78;73.50;101429.33;1784401;80;21847;-65
2020/12/03 03:43:37;;;;;;;19.02;12.13;;;;;;;3.77;73.41;101423.23;1777012;80;21902;-65
2020/12/03 03:46:05;;;;;;;19.60;10.95;;;;;;;3.79;73.39;101425.47;1774702;80;21926;-65
2020/12/03 03:48:33;;;;;;;20.02;10.65;;;;;;;3.77;73.43;101423.23;1776378;80;21074;-65
2020/12/03 03:51:00;;;;;;;27.15;11.75;;;;;;;3.80;73.36;101415.52;1764358;80;21597;-57
2020/12/03 03:53:28;;;;;;;20.40;10.90;;;;;;;3.76;73.32;101413.64;1777682;80;21153;-65
2020/12/03 03:55:55;;;;;;;22.22;11.25;;;;;;;3.74;73.41;101420.55;1772283;80;21556;-65
2020/12/03 03:58:23;;;;;;;25.17;11.73;;;;;;;3.70;73.61;101416.08;1774200;80;21162;-65
2020/12/03 04:00:50;;;;;;;22.62;11.22;;;;;;;3.72;73.58;101416.58;1759076;80;21572;-65
2020/12/03 04:03:20;;;;;;;21.65;11.45;;;;;;;3.67;73.72;101422.05;1771166;80;21607;-65
2020/12/03 04:05:50;;;;;;;21.73;11.00;;;;;;;3.77;73.52;101422.36;1780873;80;21153;-65
2020/12/03 04:08:18;;;;;;;21.93;11.28;;;;;;;3.84;73.28;101421.29;1762841;80;22318;-65
2020/12/03 04:10:48;;;;;;;20.92;11.05;;;;;;;3.70;73.65;101414.34;1783386;80;21351;-65
2020/12/03 04:13:20;;;;;;;20.45;11.25;;;;;;;3.69;73.74;101413.88;1765094;80;21484;-65
2020/12/03 04:15:48;;;;;;;21.95;11.68;;;;;;;3.69;73.77;101419.08;1764660;80;21145;-65
2020/12/03 04:18:17;;;;;;;24.07;13.10;;;;;;;3.66;73.80;101411.17;1777255;80;21537;-65
2020/12/03 04:20:45;;;;;;;22.32;12.75;;;;;;;3.65;73.87;101415.91;1774200;80;21234;-65
2020/12/03 04:23:12;;;;;;;23.02;12.40;;;;;;;3.68;73.84;101411.23;1768511;80;21949;-65
2020/12/03 04:25:40;;;;;;;23.40;12.75;;;;;;;3.66;73.93;101414.20;1770942;80;21189;-65
2020/12/03 04:28:07;;;;;;;25.27;13.18;;;;;;;3.64;73.88;101410.66;1775570;80;21576;-65
2020/12/03 04:30:35;;;;;;;20.62;11.63;;;;;;;3.75;73.65;101409.70;1759355;80;21662;-65
2020/12/03 04:33:02;;;;;;;25.32;13.20;;;;;;;3.76;73.52;101410.17;1756521;80;22085;-65
2020/12/03 04:35:30;;;;;;;21.73;11.45;;;;;;;3.77;73.47;101412.81;1757418;80;21576;-65
2020/12/03 04:37:57;;;;;;;22.02;11.78;;;;;;;3.80;73.49;101411.61;1763516;80;21170;-57
2020/12/03 04:40:39;;;;;;;25.68;11.63;;;;;;;3.81;73.47;101413.37;1765460;80;21220;-57
2020/12/03 04:43:21;;;;;;;21.85;11.95;;;;;;;3.82;73.35;101412.55;1748019;80;21148;-57
2020/12/03 04:46:06;;;;;;;25.60;12.45;;;;;;;3.85;73.21;101421.76;1767751;80;21204;-57
2020/12/03 04:49:05;;;;;;;21.97;11.45;;;;;;;3.87;73.29;101414.88;1757963;80;21529;-57
2020/12/03 04:52:10;;;;;;;21.23;12.30;;;;;;;3.82;73.42;101420.36;1749114;80;21115;-57
2020/12/03 04:54:46;;;;;;;21.02;10.85;;;;;;;3.83;73.35;101422.12;1746256;80;21124;-57
2020/12/03 04:57:42;;;;;;;24.32;12.58;;;;;;;3.84;73.51;101417.82;1757916;80;21450;-58
2020/12/03 05:00:37;;;;;;;23.73;12.93;;;;;;;3.89;73.26;101417.95;1754179;80;22348;-57
2020/12/03 05:03:23;;;;;;;20.62;11.88;;;;;;;3.88;73.29;101418.39;1747067;80;21097;-57
2020/12/03 05:06:14;;;;;;;25.85;13.58;;;;;;;3.89;73.26;101428.38;1766368;80;21549;-57
2020/12/03 05:09:05;;;;;;;25.52;13.62;;;;;;;3.83;73.27;101418.66;1767537;80;21671;-57
2020/12/03 05:11:40;;;;;;;25.15;12.82;;;;;;;3.82;73.32;101423.39;1750195;80;21090;-58
2020/12/03 05:14:38;;;;;;;25.88;12.78;;;;;;;3.73;73.55;101427.90;1740579;80;22283;-58
2020/12/03 05:17:30;;;;;;;46.92;15.72;;;;;;;3.74;73.59;101430.06;1778673;80;21537;-59
2020/12/03 05:20:23;;;;;;;31.02;13.85;;;;;;;3.71;73.93;101429.56;1755024;80;21632;-65
2020/12/03 05:23:16;;;;;;;29.63;13.55;;;;;;;3.78;74.23;101426.30;1782745;80;21998;-65
2020/12/03 05:25:47;;;;;;;29.12;14.15;;;;;;;3.80;73.89;101432.44;1740369;80;21061;-65
2020/12/03 05:28:29;;;;;;;20.08;10.63;;;;;;;3.76;73.88;101431.00;1740042;82;21263;-66
2020/12/03 05:31:13;;;;;;;34.63;14.55;;;;;;;3.75;73.88;101439.25;1721475;82;21236;-66
2020/12/03 05:33:41;;;;;;;30.37;14.58;;;;;;;3.71;73.88;101438.24;1738032;82;21605;-66
2020/12/03 05:36:25;;;;;;;26.77;14.87;;;;;;;3.64;73.98;101434.97;1741954;82;21199;-65
2020/12/03 05:38:53;;;;;;;27.90;14.87;;;;;;;3.57;74.21;101432.59;1724620;82;21610;-66
2020/12/03 05:41:23;;;;;;;28.50;14.63;;;;;;;3.54;74.55;101435.48;1724180;82;21338;-65
2020/12/03 05:43:51;;;;;;;31.40;15.53;;;;;;;3.54;74.65;101442.89;1737040;82;21701;-65
2020/12/03 05:46:19;;;;;;;30.00;16.35;;;;;;;3.54;74.59;101451.11;1742335;82;21665;-65
2020/12/03 05:48:56;;;;;;;30.43;15.03;;;;;;;3.53;74.66;101444.16;1714294;82;21677;-65
2020/12/03 05:51:32;;;;;;;31.15;16.15;;;;;;;3.54;74.62;101443.30;1741981;82;21547;-65
2020/12/03 05:54:04;;;;;;;30.25;16.97;;;;;;;3.54;74.75;101445.90;1734955;82;22116;-65
2020/12/03 05:56:32;;;;;;;31.15;16.45;;;;;;;3.59;74.64;101454.75;1716123;82;21105;-65
2020/12/03 05:59:19;;;;;;;35.30;18.65;;;;;;;3.66;74.36;101450.66;1734936;82;21146;-65
2020/12/03 06:02:02;;;;;;;31.35;17.10;;;;;;;3.68;74.22;101456.37;1710706;82;21212;-65
2020/12/03 06:04:41;;;;;;;31.15;16.85;;;;;;;3.69;74.18;101454.23;1740044;82;21622;-65
2020/12/03 06:07:46;;;;;;;31.73;16.82;;;;;;;3.67;74.21;101454.59;1741540;82;23605;-65
2020/12/03 06:10:38;;;;;;;33.10;17.75;;;;;;;3.68;74.17;101453.77;1739278;82;21633;-66
2020/12/03 06:13:24;;;;;;;;;;;;;;;3.71;74.38;101455.17;1736340;81;21540;-66
2020/12/03 06:16:05;;;;;;;28.20;14.98;;;;;;;3.79;74.34;101457.15;1729931;82;20335;-67
2020/12/03 06:18:53;;;;;;;34.65;17.62;;;;;;;3.82;74.24;101462.03;1723356;82;21071;-67
2020/12/03 06:21:41;;;;;;;32.35;16.50;;;;;;;3.93;73.91;101470.22;1724653;81;22274;-67
2020/12/03 06:24:25;;;;;;;32.83;17.55;;;;;;;3.88;73.82;101463.97;1772024;80;21129;-67
2020/12/03 06:27:34;;;;;;;31.45;16.23;;;;;;;3.85;73.95;101464.73;1713603;83;21521;-68
2020/12/03 06:30:13;;;;;;;33.65;16.85;;;;;;;3.81;74.08;101458.95;1745075;81;21598;-66
2020/12/03 06:33:01;;;;;;;31.25;15.98;;;;;;;3.88;73.85;101463.97;1698055;82;21121;-66
2020/12/03 06:35:39;;;;;;;25.97;15.10;;;;;;;3.97;73.65;101465.58;1784317;80;21185;-66
2020/12/03 06:38:39;;;;;;;29.27;16.27;;;;;;;4.01;73.76;101469.15;1770962;80;21205;-66
2020/12/03 06:41:35;;;;;;;31.25;15.35;;;;;;;4.02;73.77;101463.97;1771810;80;21177;-66
2020/12/03 06:44:25;;;;;;;31.25;17.12;;;;;;;3.99;73.65;101461.27;1784395;80;21105;-66
2020/12/03 06:47:20;;;;;;;29.40;15.32;;;;;;;4.00;73.69;101459.12;1778213;80;21528;-66
2020/12/03 06:49:56;;;;;;;33.13;17.25;;;;;;;4.02;73.66;101461.37;1784360;80;21351;-66
2020/12/03 06:52:55;;;;;;;33.33;16.12;;;;;;;4.06;73.52;101451.95;1778896;80;21490;-66
2020/12/03 06:56:10;;;;;;;31.77;15.98;;;;;;;4.05;73.56;101447.98;1780088;80;21070;-68
2020/12/03 06:59:06;;;;;;;30.85;15.45;;;;;;;4.11;73.51;101452.08;1775530;80;21570;-66
2020/12/03 07:01:56;;;;;;;29.55;15.23;;;;;;;4.07;73.53;101450.22;1714266;83;21537;-66
2020/12/03 07:04:56;;;;;;;29.18;16.50;;;;;;;4.04;73.69;101447.11;1721297;82;21203;-57
2020/12/03 07:07:57;;;;;;;30.40;16.32;;;;;;;4.04;73.80;101450.11;1712379;82;21112;-57
2020/12/03 07:11:05;;;;;;;30.17;14.63;;;;;;;4.05;73.81;101449.28;1716074;82;21517;-67
2020/12/03 07:13:59;;;;;;;41.23;21.20;;;;;;;4.01;74.09;101446.58;1775909;80;22159;-66
2020/12/03 07:16:47;;;;;;;29.72;15.00;;;;;;;4.01;74.22;101440.06;1763590;80;21136;-67
2020/12/03 07:19:44;;;;;;;30.43;15.20;;;;;;;4.02;74.27;101445.73;1767943;80;23687;-67
2020/12/03 07:22:18;;;;;;;28.23;15.38;;;;;;;4.03;74.52;101446.64;1757829;80;21533;-67
2020/12/03 07:24:47;;;;;;;22.62;12.70;;;;;;;4.10;74.24;101441.19;1760224;80;21073;-66
2020/12/03 07:27:48;;;;;;;28.55;15.72;;;;;;;4.18;74.11;101444.06;1751382;80;21627;-68
2020/12/03 07:30:42;;;;;;;27.37;14.03;;;;;;;4.22;73.97;101451.11;1729546;82;21512;-70
2020/12/03 07:33:31;;;;;;;33.33;16.17;;;;;;;4.20;73.85;101451.07;1730329;81;22299;-69
2020/12/03 07:36:35;;;;;;;28.75;15.43;;;;;;;4.19;73.77;101452.34;1746162;81;21162;-69
2020/12/03 07:39:18;;;;;;;28.73;14.68;;;;;;;4.16;74.00;101456.63;1761010;81;21543;-67
2020/12/03 07:41:55;;;;;;;29.80;15.83;;;;;;;4.25;74.00;101449.90;1763310;80;21070;-67
2020/12/03 07:44:34;;;;;;;42.80;24.75;;;;;;;4.27;73.94;101447.83;1724551;82;21119;-66
2020/12/03 07:47:19;;;;;;;44.88;25.88;;;;;;;4.28;73.86;101440.87;1726898;82;22375;-66
2020/12/03 07:50:32;;;;;;;48.83;31.90;;;;;;;4.33;73.90;101429.30;1868938;75;28134;-66
2020/12/03 07:53:22;;;;;;;47.50;28.85;;;;;;;4.31;73.99;101440.57;1756269;79;21082;-68
2020/12/03 07:55:51;;;;;;;36.40;21.17;;;;;;;4.35;74.13;101448.48;1781806;79;22257;-66
2020/12/03 07:58:38;;;;;;;37.03;22.02;;;;;;;4.29;74.40;101447.86;1778176;79;21606;-66
2020/12/03 08:01:08;;;;;;;35.55;20.82;;;;;;;4.25;74.57;101448.19;1775312;79;21083;-66
2020/12/03 08:03:39;;;;;;;46.45;28.73;;;;;;;4.29;74.76;101453.97;1787457;78;21105;-67
2020/12/03 08:06:27;;;;;;;31.48;21.68;;;;;;;4.30;74.81;101454.84;1801296;78;21659;-67
2020/12/03 08:09:07;;;;;;;35.78;21.70;;;;;;;4.31;74.75;101457.91;1765957;80;21450;-66
2020/12/03 08:11:51;;;;;;;30.23;16.52;;;;;;;4.32;74.73;101459.69;1777054;79;21936;-65
2020/12/03 08:14:40;;;;;;;33.65;19.00;;;;;;;4.32;74.73;101447.95;1771509;79;21847;-67
2020/12/03 08:17:22;;;;;;;24.77;15.75;;;;;;;4.28;74.89;101453.50;1768488;79;21157;-66
2020/12/03 08:20:13;;;;;;;29.57;16.48;;;;;;;4.37;74.62;101458.11;1768950;78;21063;-67
2020/12/03 08:22:45;;;;;;;32.53;16.62;;;;;;;4.27;74.81;101456.95;1761246;80;21616;-66
2020/12/03 08:25:24;;;;;;;28.23;16.25;;;;;;;4.24;74.97;101449.43;1781841;78;21108;-66
2020/12/03 08:28:02;;;;;;;;;;;;;;;4.25;74.99;101449.50;1773456;79;21300;-67
2020/12/03 08:30:37;;;;;;;23.90;13.65;;;;;;;4.25;75.12;101453.41;1788441;79;20242;-67
2020/12/03 08:33:17;;;;;;;23.07;13.45;;;;;;;4.24;75.17;101455.55;1777810;79;21820;-67
2020/12/03 08:35:52;;;;;;;28.27;14.65;;;;;;;4.26;75.23;101458.19;1779920;79;22245;-67
2020/12/03 08:38:23;;;;;;;24.05;14.05;;;;;;;4.32;75.16;101454.47;1788128;78;21177;-67
2020/12/03 08:40:54;;;;;;;28.25;13.98;;;;;;;4.36;75.11;101448.52;1782369;79;21137;-67
2020/12/03 08:43:21;;;;;;;22.75;13.72;;;;;;;4.46;74.87;101443.15;1789171;79;21604;-68
2020/12/03 08:46:05;;;;;;;25.05;12.40;;;;;;;4.52;74.72;101443.34;1786720;79;21118;-68
2020/12/03 08:48:35;;;;;;;27.02;13.45;;;;;;;4.56;74.60;101437.37;1801268;78;23610;-67
2020/12/03 08:51:10;;;;;;;27.07;14.18;;;;;;;4.58;74.52;101429.18;1783472;79;21074;-68
2020/12/03 08:53:39;;;;;;;24.75;12.53;;;;;;;4.59;74.48;101428.34;1772614;79;21149;-68
2020/12/03 08:56:19;;;;;;;26.87;14.43;;;;;;;4.60;74.47;101425.33;1792389;78;21142;-68
2020/12/03 08:59:03;;;;;;;26.65;12.07;;;;;;;4.53;74.62;101426.86;1767124;79;21216;-68
2020/12/03 09:01:34;;;;;;;25.90;14.28;;;;;;;4.52;74.62;101414.66;1757001;78;22243;-68
2020/12/03 09:04:02;;;;;;;26.37;13.08;;;;;;;4.55;74.72;101413.45;1789330;80;21091;-68
2020/12/03 09:06:33;;;;;;;24.70;13.30;;;;;;;4.57;74.82;101413.07;1790135;79;21126;-68
2020/12/03 09:09:02;;;;;;;26.12;12.95;;;;;;;4.63;74.56;101411.08;1789477;79;21678;-68
2020/12/03 09:11:34;;;;;;;27.98;12.65;;;;;;;4.54;74.79;101409.50;1784207;78;21542;-68
2020/12/03 09:14:02;;;;;;;22.73;11.60;;;;;;;4.61;74.66;101407.11;1775605;78;21589;-68
2020/12/03 09:16:31;;;;;;;30.23;13.03;;;;;;;4.71;74.24;101404.77;1789576;79;21577;-67
2020/12/03 09:18:59;;;;;;;26.20;13.45;;;;;;;4.71;74.14;101409.55;1795087;78;21126;-68
2020/12/03 09:21:30;;;;;;;27.93;14.05;;;;;;;4.73;74.12;101409.61;1767078;80;21549;-67
2020/12/03 09:23:58;;;;;;;25.75;14.78;;;;;;;4.72;74.15;101406.53;1786724;78;21660;-69
2020/12/03 09:26:30;;;;;;;24.77;12.20;;;;;;;4.72;74.25;101405.23;1794059;78;22267;-70
2020/12/03 09:28:58;;;;;;;27.37;12.88;;;;;;;4.78;74.37;101396.69;1777877;79;21632;-69
2020/12/03 09:31:27;;;;;;;23.83;13.53;;;;;;;4.77;74.51;101394.52;1786097;80;21078;-70
2020/12/03 09:33:55;;;;;;;24.20;13.28;;;;;;;4.78;74.51;101392.77;1797521;78;21078;-69
2020/12/03 09:36:22;;;;;;;24.45;13.00;;;;;;;4.80;74.54;101388.48;1796529;78;21098;-70
2020/12/03 09:38:50;;;;;;;25.70;13.40;;;;;;;4.82;74.53;101390.31;1774467;79;21514;-71
2020/12/03 09:41:22;;;;;;;25.30;12.05;;;;;;;4.86;74.88;101393.44;1780150;79;21290;-69
2020/12/03 09:43:51;;;;;;;24.35;13.60;;;;;;;4.94;74.64;101391.46;1798389;79;21135;-69
2020/12/03 09:46:24;;;;;;;27.20;13.10;;;;;;;4.96;74.32;101386.77;1784231;79;21463;-68
2020/12/03 09:48:50;;;;;;;24.45;13.05;;;;;;;4.90;74.37;101386.16;1778287;79;21636;-68
2020/12/03 09:51:23;;;;;;;22.45;12.73;;;;;;;4.87;74.23;101378.69;1798020;79;21259;-68
2020/12/03 09:53:51;;;;;;;24.85;12.18;;;;;;;4.81;74.30;101375.50;1785224;80;21138;-68
2020/12/03 09:56:18;;;;;;;24.80;12.55;;;;;;;4.80;74.43;101379.35;1793240;78;21796;-68
2020/12/03 09:59:02;;;;;;;23.47;11.15;;;;;;;4.79;74.35;101373.27;1781335;78;21256;-68
2020/12/03 10:02:01;;;;;;;23.35;12.45;;;;;;;4.71;74.52;101371.73;1767655;79;21173;-68
2020/12/03 10:04:59;;;;;;;20.55;11.83;;;;;;;4.71;74.67;101376.95;1760271;80;23565;-69
2020/12/03 10:08:04;;;;;;;22.20;11.48;;;;;;;4.57;75.08;101369.18;1764985;80;21529;-68
2020/12/03 10:11:00;;;;;;;25.70;13.70;;;;;;;4.57;75.20;101374.39;1770107;79;21079;-69
2020/12/03 10:14:11;;;;;;;21.33;11.48;;;;;;;4.65;74.96;101373.30;1733461;80;21646;-69
2020/12/03 10:16:40;;;;;;;33.08;13.60;;;;;;;4.61;75.12;101367.99;1751916;80;21636;-66
2020/12/03 10:19:10;;;;;;;30.30;13.43;;;;;;;4.60;75.18;101366.66;1763454;80;22272;-67
2020/12/03 10:21:46;;;;;;;23.98;11.65;;;;;;;4.66;75.14;101364.20;1767868;79;21178;-66
2020/12/03 10:24:22;;;;;;;26.48;13.18;;;;;;;4.68;75.08;101370.34;1738324;80;21505;-66
2020/12/03 10:27:11;;;;;;;25.97;13.68;;;;;;;4.73;74.99;101368.75;1765424;80;21183;-66
2020/12/03 10:29:47;;;;;;;25.23;11.78;;;;;;;4.76;75.01;101360.14;1766998;80;21135;-66
2020/12/03 10:32:16;;;;;;;23.47;12.75;;;;;;;4.78;74.94;101361.06;1764290;79;21210;-66
2020/12/03 10:34:47;;;;;;;23.00;12.47;;;;;;;4.76;74.95;101357.09;1774304;79;21082;-67
2020/12/03 10:37:34;;;;;;;24.77;13.25;;;;;;;4.78;75.05;101353.64;1775661;80;21083;-66
2020/12/03 10:40:16;;;;;;;24.90;12.45;;;;;;;4.80;75.13;101349.36;1761678;79;21908;-66
2020/12/03 10:43:05;;;;;;;25.05;13.05;;;;;;;4.80;75.06;101348.05;1765543;79;21401;-67
2020/12/03 10:45:36;;;;;;;23.05;11.68;;;;;;;4.85;74.90;101343.84;1756547;79;22270;-67
2020/12/03 10:48:13;;;;;;;26.62;13.62;;;;;;;4.82;74.87;101337.23;1768741;79;21497;-65
2020/12/03 10:50:52;;;;;;;25.50;13.40;;;;;;;4.82;74.85;101342.05;1770491;79;21685;-68
2020/12/03 10:53:30;;;;;;;23.75;12.10;;;;;;;4.81;74.84;101338.98;1753796;80;21182;-68
2020/12/03 10:56:06;;;;;;;23.67;11.73;;;;;;;4.85;74.79;101336.02;1753966;79;21168;-68
2020/12/03 11:01:28;;;;;;;23.20;12.80;;;;;;;4.93;74.80;101329.69;1885093;76;28199;-68
2020/12/03 11:04:04;;;;;;;23.07;11.73;;;;;;;4.89;74.87;101329.61;1836620;77;21111;-65
2020/12/03 11:06:35;;;;;;;37.30;12.40;;;;;;;4.94;74.82;101330.16;1836348;77;21201;-66
2020/12/03 11:09:04;;;;;;;24.52;10.70;;;;;;;4.96;74.86;101324.55;1840481;77;21554;-66
2020/12/03 11:11:37;;;;;;;22.00;11.08;;;;;;;5.00;74.62;101315.97;1838556;77;21610;-67
2020/12/03 11:14:11;;;;;;;22.35;11.15;;;;;;;4.95;74.45;101313.25;1856942;77;21085;-66
2020/12/03 11:16:42;;;;;;;21.33;10.80;;;;;;;4.94;74.33;101318.41;1844220;77;21139;-67
2020/12/03 11:19:16;;;;;;;20.80;10.63;;;;;;;4.89;74.44;101316.56;1845230;77;21448;-67
2020/12/03 11:22:08;;;;;;;20.48;10.00;;;;;;;4.86;74.52;101319.09;1833526;77;21062;-67
2020/12/03 11:24:49;;;;;;;17.00;8.50;;;;;;;4.85;74.56;101316.05;1854274;77;21482;-66
2020/12/03 11:27:20;;;;;;;18.87;8.85;;;;;;;4.87;74.44;101308.25;1856896;77;21122;-67
2020/12/03 11:29:47;;;;;;;;;;;;;;;4.86;74.46;101309.95;1852935;77;21556;-66
2020/12/03 11:32:27;;;;;;;17.30;7.90;;;;;;;4.87;74.49;101307.81;1827206;77;21351;-66
2020/12/03 11:34:55;;;;;;;18.70;9.63;;;;;;;4.88;74.69;101302.19;1833689;77;21534;-66
2020/12/03 11:37:24;;;;;;;13.35;6.97;;;;;;;4.88;74.69;101302.19;1824783;77;21808;-66
2020/12/03 11:40:04;;;;;;;13.65;6.97;;;;;;;4.93;74.44;101305.80;1826637;77;21602;-66
2020/12/03 11:45:56;;;;;;;13.32;7.00;;;;;;;4.97;74.41;101298.52;1876608;75;28601;-68
2020/12/03 11:48:19;;;;;;;16.87;8.43;;;;;;;4.92;74.54;101302.73;1819541;77;21520;-68
2020/12/03 11:50:37;;;;;;;15.90;8.30;;;;;;;4.99;74.56;101307.67;1809449;78;21150;-68
2020/12/03 11:53:06;;;;;;;14.18;7.25;;;;;;;5.00;74.47;101304.22;1809653;78;21700;-69
2020/12/03 11:55:40;;;;;;;16.10;7.15;;;;;;;5.04;74.36;101304.36;1774858;80;21111;-69
2020/12/03 11:58:08;;;;;;;12.35;6.45;;;;;;;5.02;74.36;101304.73;1770513;79;21287;-69
2020/12/03 12:00:36;;;;;;;13.78;6.92;;;;;;;5.02;74.25;101304.73;1773368;79;21592;-68
2020/12/03 12:03:10;;;;;;;12.47;6.90;;;;;;;5.01;74.37;101305.58;1751731;81;21216;-69
2020/12/03 12:13:29;;;;;;;10.13;6.28;;;;;;;5.09;74.49;101303.16;1701533;83;21101;-67